ZKJSP NZSD-NZAR
Flight info
| Callsign | ZKJSP |
|---|---|
| Flight time | 1h 31m |
| Altitude | 2500 |
| Route | URENUI RAGLAN PORT WAIKATO |
| Aircraft | C172/L-VGD/N |
Departure
| Time | 2026-04-19 00:45 |
|---|---|
| Airport | Stratford Airport (NZSD) |
Arrival
| Time | 2026-04-19 02:17 |
|---|---|
| Airport | Ardmore Airport (NZAR) |
| Time | Latitude | Longitude | Altitude | Speed | Heading |
|---|---|---|---|---|---|
| 2026-04-19 00:40 | -39.31844 | 174.30675 | 940 ft | 0 kts | 354° |
| 2026-04-19 00:40 | -39.31843 | 174.30675 | 940 ft | 0 kts | 354° |
| 2026-04-19 00:40 | -39.31836 | 174.30673 | 933 ft | 1 kts | 341° |
| 2026-04-19 00:41 | -39.31835 | 174.30673 | 933 ft | 0 kts | 341° |
| 2026-04-19 00:41 | -39.31803 | 174.30675 | 941 ft | 9 kts | 44° |
| 2026-04-19 00:41 | -39.31760 | 174.30758 | 938 ft | 11 kts | 83° |
| 2026-04-19 00:41 | -39.31786 | 174.30863 | 935 ft | 13 kts | 106° |
| 2026-04-19 00:42 | -39.31739 | 174.30904 | 937 ft | 2 kts | 122° |
| 2026-04-19 00:42 | -39.31788 | 174.30928 | 935 ft | 10 kts | 119° |
| 2026-04-19 00:42 | -39.31826 | 174.31040 | 934 ft | 16 kts | 114° |
| 2026-04-19 00:42 | -39.31877 | 174.31175 | 927 ft | 14 kts | 120° |
| 2026-04-19 00:43 | -39.31922 | 174.31253 | 924 ft | 5 kts | 122° |
| 2026-04-19 00:43 | -39.31906 | 174.31257 | 924 ft | 2 kts | 289° |
| 2026-04-19 00:43 | -39.31634 | 174.30364 | 951 ft | 0 kts | 113° |
| 2026-04-19 00:44 | -39.31645 | 174.30398 | 950 ft | 21 kts | 113° |
| 2026-04-19 00:44 | -39.31762 | 174.30767 | 940 ft | 64 kts | 105° |
| 2026-04-19 00:44 | -39.31917 | 174.31341 | 923 ft | 69 kts | 99° |
| 2026-04-19 00:44 | -39.31949 | 174.31522 | 944 ft | 76 kts | 95° |
| 2026-04-19 00:45 | -39.32039 | 174.31959 | 1060 ft | 78 kts | 97° |
| 2026-04-19 00:45 | -39.32106 | 174.32636 | 1201 ft | 77 kts | 50° |
| 2026-04-19 00:45 | -39.31695 | 174.32945 | 1381 ft | 68 kts | 14° |
| 2026-04-19 00:45 | -39.31208 | 174.33131 | 1590 ft | 75 kts | 13° |
| 2026-04-19 00:46 | -39.30729 | 174.33336 | 1840 ft | 74 kts | 12° |
| 2026-04-19 00:46 | -39.30222 | 174.33553 | 1996 ft | 78 kts | 12° |
| 2026-04-19 00:46 | -39.29693 | 174.33765 | 2197 ft | 80 kts | 12° |
| 2026-04-19 00:46 | -39.29141 | 174.33963 | 2373 ft | 84 kts | 11° |
| 2026-04-19 00:47 | -39.28571 | 174.34151 | 2507 ft | 87 kts | 10° |
| 2026-04-19 00:47 | -39.27983 | 174.34335 | 2517 ft | 88 kts | 9° |
| 2026-04-19 00:47 | -39.27380 | 174.34524 | 2510 ft | 89 kts | 11° |
| 2026-04-19 00:47 | -39.26786 | 174.34688 | 2517 ft | 87 kts | 10° |
| 2026-04-19 00:48 | -39.26189 | 174.34864 | 2528 ft | 89 kts | 10° |
| 2026-04-19 00:48 | -39.25597 | 174.35050 | 2549 ft | 89 kts | 10° |
| 2026-04-19 00:48 | -39.24982 | 174.35218 | 2556 ft | 92 kts | 8° |
| 2026-04-19 00:48 | -39.24353 | 174.35386 | 2582 ft | 94 kts | 8° |
| 2026-04-19 00:49 | -39.23698 | 174.35549 | 2585 ft | 98 kts | 8° |
| 2026-04-19 00:49 | -39.23032 | 174.35746 | 2575 ft | 96 kts | 8° |
| 2026-04-19 00:49 | -39.22383 | 174.35915 | 2589 ft | 95 kts | 7° |
| 2026-04-19 00:49 | -39.21729 | 174.36068 | 2601 ft | 96 kts | 6° |
| 2026-04-19 00:50 | -39.21057 | 174.36180 | 2591 ft | 99 kts | 4° |
| 2026-04-19 00:50 | -39.20384 | 174.36269 | 2598 ft | 98 kts | 6° |
| 2026-04-19 00:50 | -39.19707 | 174.36374 | 2613 ft | 99 kts | 6° |
| 2026-04-19 00:50 | -39.19016 | 174.36479 | 2650 ft | 100 kts | 6° |
| 2026-04-19 00:51 | -39.18318 | 174.36580 | 2658 ft | 102 kts | 6° |
| 2026-04-19 00:51 | -39.17614 | 174.36681 | 2637 ft | 102 kts | 4° |
| 2026-04-19 00:51 | -39.16909 | 174.36764 | 2653 ft | 102 kts | 3° |
| 2026-04-19 00:51 | -39.16206 | 174.36835 | 2645 ft | 101 kts | 2° |
| 2026-04-19 00:52 | -39.15505 | 174.36871 | 2647 ft | 100 kts | 1° |
| 2026-04-19 00:52 | -39.14827 | 174.36917 | 2663 ft | 99 kts | 5° |
| 2026-04-19 00:52 | -39.14151 | 174.37006 | 2655 ft | 96 kts | 4° |
| 2026-04-19 00:52 | -39.13488 | 174.37013 | 2674 ft | 96 kts | 360° |
| 2026-04-19 00:53 | -39.12826 | 174.36992 | 2773 ft | 93 kts | 358° |
| 2026-04-19 00:53 | -39.12191 | 174.36974 | 2923 ft | 90 kts | 359° |
| 2026-04-19 00:53 | -39.11554 | 174.36949 | 3015 ft | 95 kts | 359° |
| 2026-04-19 00:53 | -39.10903 | 174.36940 | 3006 ft | 90 kts | 359° |
| 2026-04-19 00:54 | -39.10261 | 174.36928 | 3013 ft | 94 kts | 360° |
| 2026-04-19 00:54 | -39.09610 | 174.36930 | 3021 ft | 94 kts | 360° |
| 2026-04-19 00:54 | -39.08983 | 174.36949 | 3022 ft | 88 kts | 1° |
| 2026-04-19 00:54 | -39.08353 | 174.36974 | 3047 ft | 93 kts | 0° |
| 2026-04-19 00:55 | -39.07689 | 174.36991 | 3066 ft | 96 kts | 1° |
| 2026-04-19 00:55 | -39.07012 | 174.37024 | 3061 ft | 99 kts | 5° |
| 2026-04-19 00:55 | -39.06341 | 174.37126 | 3069 ft | 95 kts | 6° |
| 2026-04-19 00:55 | -39.05687 | 174.37264 | 3068 ft | 96 kts | 8° |
| 2026-04-19 00:56 | -39.05019 | 174.37406 | 3072 ft | 98 kts | 7° |
| 2026-04-19 00:56 | -39.04360 | 174.37572 | 3087 ft | 99 kts | 8° |
| 2026-04-19 00:56 | -39.03672 | 174.37722 | 3077 ft | 102 kts | 7° |
| 2026-04-19 00:56 | -39.02987 | 174.37907 | 3089 ft | 100 kts | 13° |
| 2026-04-19 00:57 | -39.02319 | 174.38172 | 3103 ft | 101 kts | 15° |
| 2026-04-19 00:57 | -39.01682 | 174.38564 | 3101 ft | 103 kts | 27° |
| 2026-04-19 00:57 | -39.01105 | 174.39135 | 3097 ft | 105 kts | 34° |
| 2026-04-19 00:57 | -39.00560 | 174.39735 | 3108 ft | 103 kts | 35° |
| 2026-04-19 00:58 | -39.00015 | 174.40316 | 3122 ft | 102 kts | 25° |
| 2026-04-19 00:58 | -38.99418 | 174.40094 | 3130 ft | 106 kts | 302° |
| 2026-04-19 00:58 | -38.99652 | 174.39189 | 3126 ft | 126 kts | 217° |
| 2026-04-19 00:58 | -39.00475 | 174.39323 | 3130 ft | 126 kts | 128° |
| 2026-04-19 00:59 | -39.00525 | 174.40268 | 3129 ft | 104 kts | 41° |
| 2026-04-19 00:59 | -38.99975 | 174.40843 | 3127 ft | 100 kts | 20° |
| 2026-04-19 00:59 | -38.99436 | 174.40481 | 3132 ft | 107 kts | 291° |
| 2026-04-19 00:59 | -38.99838 | 174.39668 | 3132 ft | 128 kts | 199° |
| 2026-04-19 01:00 | -39.00576 | 174.40103 | 3142 ft | 122 kts | 108° |
| 2026-04-19 01:00 | -39.00394 | 174.40966 | 3094 ft | 104 kts | 28° |
| 2026-04-19 01:00 | -38.99761 | 174.41399 | 2867 ft | 101 kts | 19° |
| 2026-04-19 01:00 | -38.99315 | 174.40945 | 2614 ft | 107 kts | 273° |
| 2026-04-19 01:01 | -38.99930 | 174.40417 | 2286 ft | 128 kts | 164° |
| 2026-04-19 01:01 | -39.00221 | 174.41224 | 2185 ft | 103 kts | 52° |
| 2026-04-19 01:01 | -38.99647 | 174.41716 | 2151 ft | 100 kts | 24° |
| 2026-04-19 01:01 | -38.99031 | 174.42126 | 2134 ft | 102 kts | 25° |
| 2026-04-19 01:02 | -38.98405 | 174.42568 | 2085 ft | 102 kts | 26° |
| 2026-04-19 01:02 | -38.97795 | 174.43009 | 2087 ft | 100 kts | 28° |
| 2026-04-19 01:02 | -38.97212 | 174.43487 | 2054 ft | 101 kts | 29° |
| 2026-04-19 01:02 | -38.96611 | 174.43965 | 2055 ft | 104 kts | 28° |
| 2026-04-19 01:03 | -38.95975 | 174.44446 | 2072 ft | 108 kts | 27° |
| 2026-04-19 01:03 | -38.95347 | 174.45033 | 2068 ft | 113 kts | 34° |
| 2026-04-19 01:03 | -38.94721 | 174.45638 | 2079 ft | 113 kts | 33° |
| 2026-04-19 01:03 | -38.94092 | 174.46243 | 2088 ft | 113 kts | 37° |
| 2026-04-19 01:04 | -38.93501 | 174.46911 | 2101 ft | 113 kts | 36° |
| 2026-04-19 01:04 | -38.92909 | 174.47592 | 2086 ft | 115 kts | 36° |
| 2026-04-19 01:04 | -38.92276 | 174.48229 | 2058 ft | 116 kts | 35° |
| 2026-04-19 01:04 | -38.91664 | 174.48897 | 2048 ft | 117 kts | 37° |
| 2026-04-19 01:05 | -38.91068 | 174.49580 | 2099 ft | 112 kts | 34° |
| 2026-04-19 01:05 | -38.90468 | 174.50231 | 2077 ft | 115 kts | 38° |
| 2026-04-19 01:05 | -38.89866 | 174.50914 | 2074 ft | 114 kts | 37° |
| 2026-04-19 01:05 | -38.89275 | 174.51572 | 2118 ft | 113 kts | 37° |
| 2026-04-19 01:06 | -38.88710 | 174.52214 | 2086 ft | 103 kts | 36° |
| 2026-04-19 01:06 | -38.88200 | 174.52790 | 2071 ft | 95 kts | 34° |
| 2026-04-19 01:06 | -38.87692 | 174.53331 | 2087 ft | 94 kts | 35° |
| 2026-04-19 01:07 | -38.86780 | 174.54278 | 2002 ft | 95 kts | 32° |
| 2026-04-19 01:07 | -38.86260 | 174.54762 | 2011 ft | 90 kts | 30° |
| 2026-04-19 01:07 | -38.85756 | 174.55184 | 1981 ft | 88 kts | 25° |
| 2026-04-19 01:07 | -38.85232 | 174.55544 | 1970 ft | 85 kts | 23° |
| 2026-04-19 01:08 | -38.84707 | 174.55917 | 1990 ft | 90 kts | 25° |
| 2026-04-19 01:08 | -38.84142 | 174.56365 | 2004 ft | 102 kts | 23° |
| 2026-04-19 01:08 | -38.83543 | 174.56800 | 1707 ft | 102 kts | 27° |
| 2026-04-19 01:08 | -38.82955 | 174.57197 | 1234 ft | 73 kts | 17° |
| 2026-04-19 01:09 | -38.82250 | 174.57748 | 355 ft | 114 kts | 28° |
| 2026-04-19 01:09 | -38.81587 | 174.58115 | 285 ft | 100 kts | 15° |
| 2026-04-19 01:09 | -38.80922 | 174.58359 | 280 ft | 101 kts | 13° |
| 2026-04-19 01:09 | -38.80313 | 174.58551 | 518 ft | 57 kts | 7° |
| 2026-04-19 01:10 | -38.79884 | 174.58642 | 460 ft | 82 kts | 7° |
| 2026-04-19 01:10 | -38.79272 | 174.58802 | 488 ft | 96 kts | 13° |
| 2026-04-19 01:10 | -38.78599 | 174.59027 | 513 ft | 104 kts | 12° |
| 2026-04-19 01:10 | -38.77885 | 174.59285 | 573 ft | 108 kts | 14° |
| 2026-04-19 01:11 | -38.77168 | 174.59543 | 602 ft | 106 kts | 14° |
| 2026-04-19 01:11 | -38.76449 | 174.59824 | 637 ft | 107 kts | 14° |
| 2026-04-19 01:11 | -38.75738 | 174.60037 | 693 ft | 105 kts | 6° |
| 2026-04-19 01:11 | -38.75028 | 174.60126 | 773 ft | 95 kts | 4° |
| 2026-04-19 01:12 | -38.74397 | 174.60134 | 798 ft | 92 kts | 353° |
| 2026-04-19 01:12 | -38.73753 | 174.59942 | 821 ft | 98 kts | 352° |
| 2026-04-19 01:12 | -38.73103 | 174.60052 | 833 ft | 93 kts | 19° |
| 2026-04-19 01:12 | -38.72490 | 174.60166 | 838 ft | 93 kts | 3° |
| 2026-04-19 01:13 | -38.71837 | 174.60161 | 886 ft | 92 kts | 359° |
| 2026-04-19 01:13 | -38.71187 | 174.60291 | 918 ft | 100 kts | 16° |
| 2026-04-19 01:13 | -38.70545 | 174.60599 | 1015 ft | 95 kts | 22° |
| 2026-04-19 01:13 | -38.69909 | 174.60924 | 1013 ft | 101 kts | 13° |
| 2026-04-19 01:14 | -38.69217 | 174.61114 | 1035 ft | 101 kts | 9° |
| 2026-04-19 01:14 | -38.68531 | 174.61172 | 1158 ft | 98 kts | 4° |
| 2026-04-19 01:14 | -38.67869 | 174.61284 | 1256 ft | 95 kts | 7° |
| 2026-04-19 01:14 | -38.67194 | 174.61386 | 1262 ft | 100 kts | 4° |
| 2026-04-19 01:15 | -38.66491 | 174.61417 | 1236 ft | 104 kts | 3° |
| 2026-04-19 01:15 | -38.65781 | 174.61498 | 1234 ft | 101 kts | 4° |
| 2026-04-19 01:15 | -38.65094 | 174.61545 | 1235 ft | 99 kts | 1° |
| 2026-04-19 01:15 | -38.64394 | 174.61551 | 1196 ft | 102 kts | 2° |
| 2026-04-19 01:16 | -38.63705 | 174.61644 | 1213 ft | 98 kts | 4° |
| 2026-04-19 01:16 | -38.63027 | 174.61696 | 1201 ft | 97 kts | 5° |
| 2026-04-19 01:16 | -38.62349 | 174.61764 | 1193 ft | 101 kts | 6° |
| 2026-04-19 01:16 | -38.61657 | 174.61844 | 1212 ft | 98 kts | 7° |
| 2026-04-19 01:17 | -38.60967 | 174.61939 | 1225 ft | 101 kts | 5° |
| 2026-04-19 01:17 | -38.60256 | 174.62052 | 1239 ft | 105 kts | 14° |
| 2026-04-19 01:17 | -38.59578 | 174.62450 | 1238 ft | 109 kts | 22° |
| 2026-04-19 01:17 | -38.58838 | 174.62722 | 1255 ft | 110 kts | 9° |
| 2026-04-19 01:18 | -38.58125 | 174.62818 | 1355 ft | 97 kts | 4° |
| 2026-04-19 01:18 | -38.57487 | 174.62847 | 1470 ft | 89 kts | 2° |
| 2026-04-19 01:18 | -38.56880 | 174.62868 | 1578 ft | 89 kts | 0° |
| 2026-04-19 01:18 | -38.56271 | 174.62594 | 1577 ft | 100 kts | 15° |
| 2026-04-19 01:19 | -38.55604 | 174.62819 | 1627 ft | 101 kts | 9° |
| 2026-04-19 01:19 | -38.54891 | 174.62904 | 1628 ft | 103 kts | 5° |
| 2026-04-19 01:19 | -38.54296 | 174.63326 | 1775 ft | 93 kts | 7° |
| 2026-04-19 01:19 | -38.53750 | 174.63330 | 2005 ft | 70 kts | 6° |
| 2026-04-19 01:20 | -38.53115 | 174.63163 | 1857 ft | 104 kts | 354° |
| 2026-04-19 01:20 | -38.52389 | 174.63123 | 1961 ft | 101 kts | 1° |
| 2026-04-19 01:20 | -38.51703 | 174.63152 | 1969 ft | 101 kts | 2° |
| 2026-04-19 01:20 | -38.51005 | 174.63177 | 1958 ft | 99 kts | 1° |
| 2026-04-19 01:21 | -38.50315 | 174.63201 | 1955 ft | 100 kts | 2° |
| 2026-04-19 01:21 | -38.49609 | 174.63224 | 1986 ft | 103 kts | 2° |
| 2026-04-19 01:21 | -38.48896 | 174.63258 | 1979 ft | 101 kts | 2° |
| 2026-04-19 01:21 | -38.48187 | 174.63269 | 1942 ft | 102 kts | 2° |
| 2026-04-19 01:22 | -38.47475 | 174.63292 | 1935 ft | 101 kts | 2° |
| 2026-04-19 01:22 | -38.46767 | 174.63301 | 1926 ft | 101 kts | 1° |
| 2026-04-19 01:22 | -38.46071 | 174.63294 | 1938 ft | 100 kts | 360° |
| 2026-04-19 01:22 | -38.45387 | 174.63268 | 1954 ft | 99 kts | 0° |
| 2026-04-19 01:23 | -38.44700 | 174.63256 | 1966 ft | 99 kts | 0° |
| 2026-04-19 01:23 | -38.44010 | 174.63269 | 1949 ft | 101 kts | 2° |
| 2026-04-19 01:23 | -38.43316 | 174.63370 | 1999 ft | 99 kts | 8° |
| 2026-04-19 01:23 | -38.42657 | 174.63414 | 2032 ft | 97 kts | 8° |
| 2026-04-19 01:24 | -38.42049 | 174.63601 | 2019 ft | 76 kts | 13° |
| 2026-04-19 01:24 | -38.41519 | 174.63851 | 2019 ft | 92 kts | 17° |
| 2026-04-19 01:24 | -38.40865 | 174.64066 | 2057 ft | 100 kts | 14° |
| 2026-04-19 01:24 | -38.40207 | 174.64296 | 2016 ft | 99 kts | 14° |
| 2026-04-19 01:25 | -38.39559 | 174.64560 | 1984 ft | 97 kts | 16° |
| 2026-04-19 01:25 | -38.38900 | 174.64852 | 1985 ft | 103 kts | 20° |
| 2026-04-19 01:25 | -38.38219 | 174.65193 | 2039 ft | 104 kts | 18° |
| 2026-04-19 01:25 | -38.37557 | 174.65513 | 2025 ft | 101 kts | 19° |
| 2026-04-19 01:26 | -38.36920 | 174.65855 | 1997 ft | 100 kts | 21° |
| 2026-04-19 01:26 | -38.36284 | 174.66215 | 1991 ft | 99 kts | 23° |
| 2026-04-19 01:26 | -38.35669 | 174.66617 | 2000 ft | 100 kts | 24° |
| 2026-04-19 01:26 | -38.35037 | 174.67025 | 1988 ft | 104 kts | 22° |
| 2026-04-19 01:27 | -38.34389 | 174.67426 | 1996 ft | 106 kts | 23° |
| 2026-04-19 01:27 | -38.33736 | 174.67865 | 2007 ft | 105 kts | 25° |
| 2026-04-19 01:27 | -38.33088 | 174.68283 | 2012 ft | 105 kts | 17° |
| 2026-04-19 01:27 | -38.32376 | 174.68392 | 2009 ft | 104 kts | 359° |
| 2026-04-19 01:28 | -38.31649 | 174.68347 | 2024 ft | 105 kts | 356° |
| 2026-04-19 01:28 | -38.30922 | 174.68296 | 2019 ft | 105 kts | 359° |
| 2026-04-19 01:28 | -38.30186 | 174.68266 | 1993 ft | 105 kts | 359° |
| 2026-04-19 01:28 | -38.29452 | 174.68238 | 1994 ft | 104 kts | 359° |
| 2026-04-19 01:29 | -38.28745 | 174.68215 | 1998 ft | 102 kts | 358° |
| 2026-04-19 01:29 | -38.28031 | 174.68190 | 1990 ft | 103 kts | 359° |
| 2026-04-19 01:29 | -38.27315 | 174.68188 | 1997 ft | 104 kts | 359° |
| 2026-04-19 01:29 | -38.26597 | 174.68171 | 1996 ft | 104 kts | 358° |
| 2026-04-19 01:30 | -38.25861 | 174.68147 | 1949 ft | 105 kts | 359° |
| 2026-04-19 01:30 | -38.25133 | 174.68138 | 1941 ft | 104 kts | 359° |
| 2026-04-19 01:30 | -38.24407 | 174.68127 | 1956 ft | 104 kts | 359° |
| 2026-04-19 01:30 | -38.23692 | 174.68130 | 1971 ft | 101 kts | 1° |
| 2026-04-19 01:31 | -38.22994 | 174.68179 | 1975 ft | 102 kts | 3° |
| 2026-04-19 01:31 | -38.22278 | 174.68246 | 1975 ft | 103 kts | 3° |
| 2026-04-19 01:31 | -38.21571 | 174.68304 | 2007 ft | 100 kts | 2° |
| 2026-04-19 01:31 | -38.20889 | 174.68312 | 2040 ft | 100 kts | 2° |
| 2026-04-19 01:32 | -38.20191 | 174.68350 | 2035 ft | 101 kts | 4° |
| 2026-04-19 01:32 | -38.19482 | 174.68460 | 2035 ft | 103 kts | 9° |
| 2026-04-19 01:32 | -38.18773 | 174.68511 | 2042 ft | 103 kts | 358° |
| 2026-04-19 01:32 | -38.18076 | 174.68645 | 2026 ft | 104 kts | 21° |
| 2026-04-19 01:33 | -38.17449 | 174.69107 | 1996 ft | 106 kts | 28° |
| 2026-04-19 01:33 | -38.16827 | 174.69616 | 2001 ft | 105 kts | 30° |
| 2026-04-19 01:33 | -38.16226 | 174.70117 | 1989 ft | 105 kts | 28° |
| 2026-04-19 01:33 | -38.15609 | 174.70614 | 1997 ft | 105 kts | 31° |
| 2026-04-19 01:34 | -38.14995 | 174.71132 | 1999 ft | 107 kts | 28° |
| 2026-04-19 01:34 | -38.14378 | 174.71637 | 1999 ft | 106 kts | 31° |
| 2026-04-19 01:34 | -38.13763 | 174.72151 | 2003 ft | 107 kts | 31° |
| 2026-04-19 01:34 | -38.13150 | 174.72684 | 2016 ft | 106 kts | 32° |
| 2026-04-19 01:35 | -38.12540 | 174.73232 | 2057 ft | 108 kts | 33° |
| 2026-04-19 01:35 | -38.11919 | 174.73805 | 2066 ft | 111 kts | 33° |
| 2026-04-19 01:35 | -38.11310 | 174.74376 | 2052 ft | 109 kts | 33° |
| 2026-04-19 01:35 | -38.10714 | 174.74948 | 2060 ft | 105 kts | 33° |
| 2026-04-19 01:36 | -38.10141 | 174.75514 | 2066 ft | 102 kts | 33° |
| 2026-04-19 01:36 | -38.09519 | 174.75919 | 2077 ft | 101 kts | 17° |
| 2026-04-19 01:36 | -38.08845 | 174.76191 | 2066 ft | 102 kts | 14° |
| 2026-04-19 01:36 | -38.08183 | 174.76496 | 2082 ft | 102 kts | 17° |
| 2026-04-19 01:37 | -38.07514 | 174.76794 | 2074 ft | 103 kts | 18° |
| 2026-04-19 01:37 | -38.06819 | 174.77051 | 2041 ft | 106 kts | 13° |
| 2026-04-19 01:37 | -38.06119 | 174.77308 | 2061 ft | 104 kts | 15° |
| 2026-04-19 01:37 | -38.05430 | 174.77576 | 2075 ft | 105 kts | 14° |
| 2026-04-19 01:38 | -38.04725 | 174.77836 | 2105 ft | 104 kts | 15° |
| 2026-04-19 01:38 | -38.04035 | 174.78110 | 2124 ft | 103 kts | 15° |
| 2026-04-19 01:38 | -38.03345 | 174.78366 | 2118 ft | 105 kts | 14° |
| 2026-04-19 01:38 | -38.02633 | 174.78611 | 2120 ft | 106 kts | 14° |
| 2026-04-19 01:39 | -38.01927 | 174.78866 | 2124 ft | 105 kts | 15° |
| 2026-04-19 01:39 | -38.01239 | 174.79139 | 2136 ft | 103 kts | 15° |
| 2026-04-19 01:39 | -38.00532 | 174.79370 | 2072 ft | 107 kts | 13° |
| 2026-04-19 01:39 | -37.99817 | 174.79557 | 2086 ft | 107 kts | 9° |
| 2026-04-19 01:40 | -37.99079 | 174.79726 | 2073 ft | 108 kts | 8° |
| 2026-04-19 01:40 | -37.98344 | 174.79889 | 2072 ft | 109 kts | 10° |
| 2026-04-19 01:40 | -37.97603 | 174.80052 | 2045 ft | 107 kts | 8° |
| 2026-04-19 01:40 | -37.96867 | 174.80218 | 2057 ft | 106 kts | 8° |
| 2026-04-19 01:41 | -37.96124 | 174.80354 | 2066 ft | 108 kts | 7° |
| 2026-04-19 01:41 | -37.95380 | 174.80501 | 2078 ft | 108 kts | 7° |
| 2026-04-19 01:41 | -37.94652 | 174.80701 | 2091 ft | 107 kts | 14° |
| 2026-04-19 01:41 | -37.93932 | 174.80978 | 2161 ft | 108 kts | 16° |
| 2026-04-19 01:42 | -37.93228 | 174.81230 | 2186 ft | 105 kts | 14° |
| 2026-04-19 01:42 | -37.92521 | 174.81470 | 2201 ft | 106 kts | 12° |
| 2026-04-19 01:42 | -37.91075 | 174.81816 | 2151 ft | 109 kts | 12° |
| 2026-04-19 01:43 | -37.90349 | 174.82050 | 2167 ft | 106 kts | 13° |
| 2026-04-19 01:43 | -37.89639 | 174.82302 | 2169 ft | 107 kts | 13° |
| 2026-04-19 01:43 | -37.88919 | 174.82528 | 2150 ft | 107 kts | 14° |
| 2026-04-19 01:43 | -37.88208 | 174.82714 | 2152 ft | 105 kts | 10° |
| 2026-04-19 01:44 | -37.87476 | 174.82866 | 2137 ft | 105 kts | 7° |
| 2026-04-19 01:44 | -37.86753 | 174.82952 | 2147 ft | 108 kts | 3° |
| 2026-04-19 01:44 | -37.85997 | 174.83021 | 2187 ft | 109 kts | 6° |
| 2026-04-19 01:44 | -37.85254 | 174.83156 | 2203 ft | 106 kts | 8° |
| 2026-04-19 01:45 | -37.84517 | 174.83277 | 2198 ft | 108 kts | 7° |
| 2026-04-19 01:45 | -37.83752 | 174.83401 | 2184 ft | 113 kts | 7° |
| 2026-04-19 01:45 | -37.82978 | 174.83531 | 2186 ft | 109 kts | 6° |
| 2026-04-19 01:45 | -37.82194 | 174.83599 | 2041 ft | 115 kts | 2° |
| 2026-04-19 01:46 | -37.81410 | 174.83630 | 1983 ft | 112 kts | 358° |
| 2026-04-19 01:46 | -37.81008 | 174.83225 | 1999 ft | 130 kts | 189° |
| 2026-04-19 01:46 | -37.80818 | 174.83499 | 1929 ft | 90 kts | 359° |
| 2026-04-19 01:46 | -37.80165 | 174.83416 | 1929 ft | 106 kts | 306° |
| 2026-04-19 01:47 | -37.80394 | 174.83405 | 1888 ft | 88 kts | 6° |
| 2026-04-19 01:47 | -37.79777 | 174.83543 | 1635 ft | 96 kts | 50° |
| 2026-04-19 01:47 | -37.80017 | 174.84237 | 1316 ft | 111 kts | 174° |
| 2026-04-19 01:47 | -37.80387 | 174.83679 | 981 ft | 89 kts | 307° |
| 2026-04-19 01:48 | -37.79798 | 174.83399 | 836 ft | 100 kts | 354° |
| 2026-04-19 01:48 | -37.79116 | 174.83319 | 978 ft | 98 kts | 353° |
| 2026-04-19 01:48 | -37.78431 | 174.83182 | 948 ft | 101 kts | 346° |
| 2026-04-19 01:48 | -37.77740 | 174.82893 | 958 ft | 107 kts | 345° |
| 2026-04-19 01:49 | -37.77011 | 174.82647 | 1001 ft | 112 kts | 349° |
| 2026-04-19 01:49 | -37.76248 | 174.82427 | 1067 ft | 112 kts | 350° |
| 2026-04-19 01:49 | -37.75477 | 174.82223 | 1077 ft | 114 kts | 348° |
| 2026-04-19 01:49 | -37.74711 | 174.81983 | 1084 ft | 111 kts | 348° |
| 2026-04-19 01:50 | -37.73982 | 174.81798 | 1079 ft | 103 kts | 353° |
| 2026-04-19 01:50 | -37.73302 | 174.81604 | 1089 ft | 100 kts | 348° |
| 2026-04-19 01:50 | -37.72635 | 174.81427 | 1107 ft | 98 kts | 349° |
| 2026-04-19 01:50 | -37.71974 | 174.81253 | 1157 ft | 81 kts | 350° |
| 2026-04-19 01:51 | -37.71562 | 174.81138 | 1105 ft | 87 kts | 344° |
| 2026-04-19 01:51 | -37.70878 | 174.80932 | 1014 ft | 110 kts | 349° |
| 2026-04-19 01:51 | -37.70110 | 174.80745 | 1002 ft | 116 kts | 349° |
| 2026-04-19 01:51 | -37.69328 | 174.80528 | 1020 ft | 116 kts | 347° |
| 2026-04-19 01:52 | -37.68568 | 174.80269 | 1119 ft | 110 kts | 345° |
| 2026-04-19 01:52 | -37.67802 | 174.80023 | 1089 ft | 78 kts | 355° |
| 2026-04-19 01:52 | -37.67272 | 174.79886 | 769 ft | 123 kts | 11° |
| 2026-04-19 01:52 | -37.66351 | 174.80006 | 47 ft | 136 kts | 341° |
| 2026-04-19 01:53 | -37.65536 | 174.79559 | 16 ft | 122 kts | 354° |
| 2026-04-19 01:53 | -37.64712 | 174.79545 | 14 ft | 118 kts | 3° |
| 2026-04-19 01:53 | -37.63922 | 174.79312 | 16 ft | 117 kts | 339° |
| 2026-04-19 01:53 | -37.63178 | 174.78927 | 36 ft | 115 kts | 341° |
| 2026-04-19 01:54 | -37.63013 | 174.78186 | 532 ft | 71 kts | 320° |
| 2026-04-19 01:54 | -37.62407 | 174.78065 | 488 ft | 93 kts | 2° |
| 2026-04-19 01:54 | -37.61851 | 174.78048 | 978 ft | 62 kts | 351° |
| 2026-04-19 01:54 | -37.61373 | 174.77851 | 1041 ft | 84 kts | 339° |
| 2026-04-19 01:55 | -37.60847 | 174.77459 | 1083 ft | 92 kts | 323° |
| 2026-04-19 01:55 | -37.60297 | 174.77100 | 1228 ft | 89 kts | 344° |
| 2026-04-19 01:55 | -37.59643 | 174.76833 | 1265 ft | 106 kts | 344° |
| 2026-04-19 01:55 | -37.58956 | 174.76550 | 1386 ft | 104 kts | 341° |
| 2026-04-19 01:56 | -37.58488 | 174.76233 | 1973 ft | 42 kts | 316° |
| 2026-04-19 01:56 | -37.57940 | 174.76026 | 1516 ft | 110 kts | 352° |
| 2026-04-19 01:56 | -37.57204 | 174.75864 | 1620 ft | 108 kts | 347° |
| 2026-04-19 01:56 | -37.56752 | 174.75279 | 1788 ft | 107 kts | 303° |
| 2026-04-19 01:57 | -37.56081 | 174.74854 | 1632 ft | 118 kts | 349° |
| 2026-04-19 01:57 | -37.55348 | 174.75288 | 1573 ft | 119 kts | 23° |
| 2026-04-19 01:57 | -37.54608 | 174.75469 | 1748 ft | 105 kts | 357° |
| 2026-04-19 01:57 | -37.53865 | 174.75421 | 1798 ft | 109 kts | 356° |
| 2026-04-19 01:58 | -37.53025 | 174.75505 | 1312 ft | 124 kts | 17° |
| 2026-04-19 01:58 | -37.52301 | 174.75993 | 1452 ft | 113 kts | 22° |
| 2026-04-19 01:58 | -37.51611 | 174.76381 | 1633 ft | 109 kts | 20° |
| 2026-04-19 01:58 | -37.50945 | 174.76763 | 1867 ft | 103 kts | 22° |
| 2026-04-19 01:59 | -37.50309 | 174.77140 | 2077 ft | 101 kts | 21° |
| 2026-04-19 01:59 | -37.49673 | 174.77502 | 2276 ft | 100 kts | 22° |
| 2026-04-19 01:59 | -37.49057 | 174.77917 | 2439 ft | 100 kts | 25° |
| 2026-04-19 01:59 | -37.48439 | 174.78349 | 2450 ft | 103 kts | 25° |
| 2026-04-19 02:00 | -37.47809 | 174.78782 | 2471 ft | 102 kts | 24° |
| 2026-04-19 02:00 | -37.47185 | 174.79169 | 2466 ft | 99 kts | 21° |
| 2026-04-19 02:00 | -37.46565 | 174.79531 | 2460 ft | 100 kts | 21° |
| 2026-04-19 02:00 | -37.45911 | 174.79891 | 2474 ft | 104 kts | 19° |
| 2026-04-19 02:01 | -37.45233 | 174.80233 | 2492 ft | 107 kts | 20° |
| 2026-04-19 02:01 | -37.44538 | 174.80553 | 2493 ft | 106 kts | 19° |
| 2026-04-19 02:01 | -37.43869 | 174.80955 | 2513 ft | 106 kts | 22° |
| 2026-04-19 02:01 | -37.43209 | 174.81384 | 2529 ft | 106 kts | 21° |
| 2026-04-19 02:02 | -37.42553 | 174.81801 | 2590 ft | 107 kts | 26° |
| 2026-04-19 02:02 | -37.41903 | 174.82285 | 2662 ft | 108 kts | 28° |
| 2026-04-19 02:02 | -37.41259 | 174.82782 | 2660 ft | 111 kts | 25° |
| 2026-04-19 02:02 | -37.40588 | 174.83204 | 2718 ft | 107 kts | 23° |
| 2026-04-19 02:03 | -37.39918 | 174.83640 | 2735 ft | 109 kts | 24° |
| 2026-04-19 02:03 | -37.39216 | 174.84032 | 2761 ft | 112 kts | 15° |
| 2026-04-19 02:03 | -37.38465 | 174.84307 | 2760 ft | 113 kts | 12° |
| 2026-04-19 02:03 | -37.37713 | 174.84519 | 2711 ft | 105 kts | 8° |
| 2026-04-19 02:04 | -37.36999 | 174.84670 | 2477 ft | 103 kts | 8° |
| 2026-04-19 02:04 | -37.36301 | 174.84826 | 2303 ft | 101 kts | 8° |
| 2026-04-19 02:04 | -37.35614 | 174.84975 | 2230 ft | 100 kts | 7° |
| 2026-04-19 02:04 | -37.34922 | 174.85106 | 2214 ft | 102 kts | 9° |
| 2026-04-19 02:05 | -37.34252 | 174.85346 | 2235 ft | 100 kts | 12° |
| 2026-04-19 02:05 | -37.33581 | 174.85561 | 2199 ft | 100 kts | 9° |
| 2026-04-19 02:05 | -37.32908 | 174.85789 | 2237 ft | 100 kts | 14° |
| 2026-04-19 02:05 | -37.32230 | 174.86029 | 2247 ft | 102 kts | 9° |
| 2026-04-19 02:06 | -37.31530 | 174.86241 | 2227 ft | 105 kts | 11° |
| 2026-04-19 02:06 | -37.30811 | 174.86461 | 2210 ft | 107 kts | 12° |
| 2026-04-19 02:06 | -37.30099 | 174.86682 | 2177 ft | 104 kts | 11° |
| 2026-04-19 02:06 | -37.29422 | 174.86980 | 2169 ft | 106 kts | 26° |
| 2026-04-19 02:07 | -37.28811 | 174.87457 | 2176 ft | 102 kts | 26° |
| 2026-04-19 02:07 | -37.28201 | 174.87919 | 2169 ft | 103 kts | 27° |
| 2026-04-19 02:07 | -37.27592 | 174.88381 | 2211 ft | 102 kts | 27° |
| 2026-04-19 02:07 | -37.26968 | 174.88818 | 2171 ft | 103 kts | 25° |
| 2026-04-19 02:08 | -37.26338 | 174.89244 | 2097 ft | 104 kts | 25° |
| 2026-04-19 02:08 | -37.25693 | 174.89617 | 2105 ft | 103 kts | 20° |
| 2026-04-19 02:08 | -37.25006 | 174.89963 | 2041 ft | 107 kts | 18° |
| 2026-04-19 02:08 | -37.24351 | 174.90327 | 2055 ft | 104 kts | 18° |
| 2026-04-19 02:09 | -37.23664 | 174.90628 | 2070 ft | 104 kts | 16° |
| 2026-04-19 02:09 | -37.23008 | 174.90979 | 2098 ft | 103 kts | 25° |
| 2026-04-19 02:09 | -37.22386 | 174.91416 | 2116 ft | 103 kts | 24° |
| 2026-04-19 02:09 | -37.21765 | 174.91883 | 2142 ft | 105 kts | 30° |
| 2026-04-19 02:10 | -37.21156 | 174.92415 | 2111 ft | 108 kts | 30° |
| 2026-04-19 02:10 | -37.20578 | 174.92985 | 2103 ft | 106 kts | 37° |
| 2026-04-19 02:10 | -37.20007 | 174.93613 | 1980 ft | 111 kts | 39° |
| 2026-04-19 02:10 | -37.19468 | 174.94279 | 1917 ft | 110 kts | 44° |
| 2026-04-19 02:11 | -37.18959 | 174.94969 | 1942 ft | 103 kts | 33° |
| 2026-04-19 02:11 | -37.18314 | 174.95284 | 1915 ft | 100 kts | 0° |
| 2026-04-19 02:11 | -37.17616 | 174.95300 | 1912 ft | 102 kts | 0° |
| 2026-04-19 02:11 | -37.16905 | 174.95305 | 1896 ft | 103 kts | 356° |
| 2026-04-19 02:12 | -37.16195 | 174.95264 | 1930 ft | 101 kts | 356° |
| 2026-04-19 02:12 | -37.15506 | 174.95168 | 1932 ft | 103 kts | 354° |
| 2026-04-19 02:12 | -37.14779 | 174.95091 | 1954 ft | 104 kts | 355° |
| 2026-04-19 02:12 | -37.14066 | 174.95030 | 1957 ft | 104 kts | 353° |
| 2026-04-19 02:13 | -37.13337 | 174.94950 | 1989 ft | 106 kts | 355° |
| 2026-04-19 02:13 | -37.12613 | 174.94861 | 1954 ft | 105 kts | 352° |
| 2026-04-19 02:13 | -37.11893 | 174.94748 | 1972 ft | 104 kts | 354° |
| 2026-04-19 02:13 | -37.11174 | 174.94728 | 1973 ft | 107 kts | 358° |
| 2026-04-19 02:14 | -37.10422 | 174.94658 | 1920 ft | 109 kts | 353° |
| 2026-04-19 02:14 | -37.09676 | 174.94544 | 1916 ft | 102 kts | 352° |
| 2026-04-19 02:14 | -37.08972 | 174.94425 | 1823 ft | 104 kts | 354° |
| 2026-04-19 02:14 | -37.08247 | 174.94381 | 1684 ft | 105 kts | 360° |
| 2026-04-19 02:15 | -37.07510 | 174.94373 | 1535 ft | 105 kts | 1° |
| 2026-04-19 02:15 | -37.06800 | 174.94374 | 1447 ft | 101 kts | 1° |
| 2026-04-19 02:15 | -37.06107 | 174.94402 | 1376 ft | 98 kts | 2° |
| 2026-04-19 02:15 | -37.05433 | 174.94535 | 1223 ft | 99 kts | 20° |
| 2026-04-19 02:16 | -37.04917 | 174.95072 | 994 ft | 92 kts | 41° |
| 2026-04-19 02:16 | -37.04508 | 174.95650 | 785 ft | 77 kts | 42° |
| 2026-04-19 02:16 | -37.04191 | 174.96037 | 622 ft | 59 kts | 40° |
| 2026-04-19 02:16 | -37.03910 | 174.96378 | 405 ft | 55 kts | 44° |
| 2026-04-19 02:17 | -37.03661 | 174.96717 | 218 ft | 55 kts | 40° |
| 2026-04-19 02:17 | -37.03407 | 174.97041 | 110 ft | 42 kts | 40° |
| 2026-04-19 02:17 | -37.03278 | 174.97212 | 105 ft | 12 kts | 76° |
| 2026-04-19 02:17 | -37.03291 | 174.97285 | 104 ft | 6 kts | 32° |
| 2026-04-19 02:18 | -37.03287 | 174.97336 | 104 ft | 11 kts | 175° |
| 2026-04-19 02:18 | -37.03368 | 174.97270 | 103 ft | 14 kts | 222° |
| 2026-04-19 02:18 | -37.03411 | 174.97281 | 103 ft | 8 kts | 92° |
| 2026-04-19 02:18 | -37.03404 | 174.97296 | 103 ft | 0 kts | 55° |